Terminal Aerodrome Forecast
Issued by NWS

Home | Current Version | Previous Version | Text Only | Print | Product List | Glossary On
Versions: 1 2 3 4 5 6 7 8 9 10 11 12 13 14 15 16 17 18 19
000
FTPA31 PHFO 260200 AAA
TAFHNY
TAF AMD
PHNY 260200Z 2602/2624 03013KT P6SM FEW025 SCT045
      TEMPO 2602/2604 03016G22KT BKN025
     FM260900 03010KT P6SM FEW025 SCT045=

USA.gov is the U.S. government's official web portal to all federal, state and local government web resources and services.